Time;durP1;ratioP1;P1;durP2;ratioP2;P2;SDS_P1;SDS_P2;PMS_P1;PMS_P2;Temp;Humidity;BMP_temperature;BMP_pressure;BME280_temperature;BME280_humidity;BME280_pressure;Samples;Min_cycle;Max_cycle;Signal;HPM_P1;HPM_P2
2023/10/20 00:00:33;;;;;;;22.45;18.48;;;15.40;99.90;;;;;;5060009;28;38105;-77
2023/10/20 00:02:59;;;;;;;25.25;19.75;;;15.40;99.90;;;;;;5071609;28;39021;-77
2023/10/20 00:05:26;;;;;;;25.80;19.92;;;15.30;99.90;;;;;;5065934;28;36992;-76
2023/10/20 00:07:53;;;;;;;28.38;20.02;;;15.40;99.90;;;;;;5057986;28;37694;-78
2023/10/20 00:10:19;;;;;;;25.98;18.05;;;15.30;99.90;;;;;;5057576;28;36180;-78
2023/10/20 00:12:46;;;;;;;28.40;18.73;;;15.40;99.90;;;;;;5057771;28;39862;-78
2023/10/20 00:15:15;;;;;;;30.20;20.67;;;15.40;99.90;;;;;;5071605;28;38412;-78
2023/10/20 00:17:42;;;;;;;28.73;18.67;;;15.40;99.90;;;;;;5067410;28;38939;-79
2023/10/20 00:20:12;;;;;;;24.38;18.05;;;15.30;99.90;;;;;;5063061;28;37412;-79
2023/10/20 00:22:39;;;;;;;19.90;17.02;;;15.30;99.90;;;;;;5062945;28;40317;-78
2023/10/20 00:25:05;;;;;;;23.77;17.08;;;15.30;99.90;;;;;;5061744;28;37592;-78
2023/10/20 00:27:31;;;;;;;20.27;17.38;;;15.30;99.90;;;;;;5064445;28;37802;-78
2023/10/20 00:29:57;;;;;;;25.63;17.55;;;15.30;99.90;;;;;;5071402;28;36550;-79
2023/10/20 00:32:23;;;;;;;25.10;18.85;;;15.30;99.90;;;;;;5068218;28;40172;-79
2023/10/20 00:34:50;;;;;;;23.42;18.83;;;15.40;99.90;;;;;;5070703;28;38397;-79
2023/10/20 00:37:16;;;;;;;25.92;18.92;;;15.40;99.90;;;;;;5073168;28;38433;-80
2023/10/20 00:39:43;;;;;;;22.35;17.65;;;15.40;99.90;;;;;;5065789;28;37902;-79
2023/10/20 00:42:09;;;;;;;23.20;17.45;;;15.40;99.90;;;;;;5068979;28;38722;-79
2023/10/20 00:44:35;;;;;;;27.40;21.02;;;15.40;99.90;;;;;;5060427;28;36984;-79
2023/10/20 00:47:01;;;;;;;34.90;23.25;;;15.40;99.90;;;;;;5066100;28;38481;-78
2023/10/20 00:49:28;;;;;;;26.90;20.55;;;15.40;99.90;;;;;;5060905;28;36208;-78
2023/10/20 00:51:54;;;;;;;27.48;22.02;;;15.40;99.90;;;;;;5074140;28;38532;-79
2023/10/20 00:54:20;;;;;;;28.00;22.45;;;15.40;99.90;;;;;;5066279;28;38105;-78
2023/10/20 00:56:47;;;;;;;35.45;25.48;;;15.40;99.90;;;;;;5059067;28;37952;-78
2023/10/20 00:59:13;;;;;;;27.15;21.10;;;15.40;99.90;;;;;;5065186;28;36461;-78
2023/10/20 01:01:52;;;;;;;29.25;24.58;;;15.40;99.90;;;;;;5452860;22;37680;-76
2023/10/20 01:04:19;;;;;;;36.28;24.95;;;15.40;99.90;;;;;;5010688;28;37042;-78
2023/10/20 01:06:48;;;;;;;36.30;27.65;;;15.40;99.90;;;;;;5026895;28;38303;-79
2023/10/20 01:09:23;;;;;;;29.45;22.92;;;15.40;99.90;;;;;;5025157;28;37258;-78
2023/10/20 01:11:49;;;;;;;29.45;24.52;;;15.30;99.90;;;;;;5028436;28;38302;-78
2023/10/20 01:14:15;;;;;;;40.42;30.27;;;15.30;99.90;;;;;;5018828;28;37557;-78
2023/10/20 01:16:44;;;;;;;30.42;25.50;;;15.40;99.90;;;;;;5026563;28;37929;-78
2023/10/20 01:19:10;;;;;;;30.40;25.60;;;15.30;99.90;;;;;;5024871;28;37361;-79
2023/10/20 01:21:37;;;;;;;37.63;28.40;;;15.30;99.90;;;;;;5024104;28;39581;-81
2023/10/20 01:24:04;;;;;;;35.40;28.55;;;15.30;99.90;;;;;;5025722;28;37734;-80
2023/10/20 01:26:31;;;;;;;36.65;30.20;;;15.40;99.90;;;;;;5025904;28;37863;-79
2023/10/20 01:28:59;;;;;;;42.45;31.98;;;15.40;99.90;;;;;;5026158;28;38981;-78
2023/10/20 01:31:25;;;;;;;38.08;30.42;;;15.40;99.90;;;;;;5027698;28;38824;-79
2023/10/20 01:33:51;;;;;;;38.33;30.33;;;15.40;99.90;;;;;;5027285;28;38454;-80
2023/10/20 01:36:18;;;;;;;31.83;27.98;;;15.30;99.90;;;;;;5027740;28;36873;-80
2023/10/20 01:38:44;;;;;;;36.33;30.25;;;15.30;99.90;;;;;;5040313;28;38108;-79
2023/10/20 01:41:11;;;;;;;39.22;31.35;;;15.30;99.90;;;;;;5028113;28;38909;-77
2023/10/20 01:43:37;;;;;;;36.97;30.52;;;15.40;99.90;;;;;;5033782;28;36975;-79
2023/10/20 01:46:03;;;;;;;36.88;32.05;;;15.30;99.90;;;;;;5028221;28;38393;-77
2023/10/20 01:48:32;;;;;;;34.70;29.20;;;15.30;99.90;;;;;;5041367;28;36268;-79
2023/10/20 01:51:01;;;;;;;37.30;31.27;;;15.30;99.90;;;;;;5039156;28;38706;-80
2023/10/20 01:53:27;;;;;;;33.22;29.40;;;15.30;99.90;;;;;;5042926;28;46563;-79
2023/10/20 01:55:53;;;;;;;37.72;31.27;;;15.30;99.90;;;;;;5045693;28;36976;-76
2023/10/20 01:58:20;;;;;;;43.03;33.63;;;15.30;99.90;;;;;;5024412;28;36457;-76
2023/10/20 02:00:50;;;;;;;40.72;32.47;;;15.30;99.90;;;;;;5026880;28;38998;-77
2023/10/20 02:03:17;;;;;;;36.42;31.73;;;15.30;99.90;;;;;;5021664;28;37275;-77
2023/10/20 02:05:43;;;;;;;40.92;33.55;;;15.30;99.90;;;;;;5042120;28;36873;-76
2023/10/20 02:08:11;;;;;;;37.22;30.70;;;15.30;99.90;;;;;;5024461;28;36453;-77
2023/10/20 02:10:37;;;;;;;45.08;35.83;;;15.30;99.90;;;;;;5026969;28;37879;-77
2023/10/20 02:13:03;;;;;;;49.58;38.25;;;15.30;99.90;;;;;;5025811;28;38644;-77
2023/10/20 02:15:30;;;;;;;37.58;31.63;;;15.30;99.90;;;;;;5034655;28;36974;-78
2023/10/20 02:17:59;;;;;;;35.03;31.27;;;15.30;99.90;;;;;;5028471;28;37549;-78
2023/10/20 02:20:27;;;;;;;42.85;33.78;;;15.20;99.90;;;;;;5028198;28;39541;-79
2023/10/20 02:22:53;;;;;;;43.17;35.10;;;15.30;99.90;;;;;;5026991;28;37352;-78
2023/10/20 02:25:20;;;;;;;43.67;35.63;;;15.20;99.90;;;;;;5026259;28;36747;-79
2023/10/20 02:27:47;;;;;;;44.20;34.63;;;15.30;99.90;;;;;;5023190;28;36182;-80
2023/10/20 02:30:15;;;;;;;46.90;35.20;;;15.20;99.90;;;;;;5029103;28;39702;-79
2023/10/20 02:32:42;;;;;;;37.80;30.48;;;15.20;99.90;;;;;;5029027;28;38276;-79
2023/10/20 02:35:08;;;;;;;46.47;34.35;;;15.20;99.90;;;;;;5028302;28;37024;-79
2023/10/20 02:37:35;;;;;;;41.72;33.17;;;15.20;99.90;;;;;;5041339;28;37177;-79
2023/10/20 02:40:04;;;;;;;41.67;34.03;;;15.20;99.90;;;;;;5023591;28;37484;-77
2023/10/20 02:42:31;;;;;;;43.78;34.58;;;15.20;99.90;;;;;;5028900;28;48998;-80
2023/10/20 02:44:58;;;;;;;39.08;32.70;;;15.10;99.90;;;;;;5025416;28;37005;-80
2023/10/20 02:47:25;;;;;;;47.72;35.10;;;15.20;99.90;;;;;;5027000;28;38033;-78
2023/10/20 02:49:58;;;;;;;34.55;29.98;;;15.20;99.90;;;;;;5024678;28;38139;-82
2023/10/20 02:52:25;;;;;;;44.95;34.88;;;15.10;99.90;;;;;;5011935;28;37751;-78
2023/10/20 02:54:54;;;;;;;48.75;35.28;;;15.10;99.90;;;;;;5026159;28;37209;-79
2023/10/20 02:57:21;;;;;;;43.78;35.80;;;15.10;99.90;;;;;;5025334;28;36065;-78
2023/10/20 02:59:50;;;;;;;42.97;36.95;;;15.20;99.90;;;;;;5027141;28;38814;-79
2023/10/20 03:02:18;;;;;;;47.45;37.38;;;15.10;99.90;;;;;;5030632;28;37235;-78
2023/10/20 03:04:44;;;;;;;46.47;37.60;;;15.20;99.90;;;;;;5020753;28;36666;-79
2023/10/20 03:07:10;;;;;;;46.92;35.90;;;15.10;99.90;;;;;;5044247;28;37722;-77
2023/10/20 03:09:36;;;;;;;47.90;39.28;;;15.10;99.90;;;;;;5030848;28;38200;-78
2023/10/20 03:12:03;;;;;;;54.65;38.78;;;15.10;99.90;;;;;;5032963;28;38415;-78
2023/10/20 03:14:30;;;;;;;44.88;35.60;;;15.10;99.90;;;;;;5032308;28;39010;-79
2023/10/20 03:16:56;;;;;;;43.38;35.42;;;15.10;99.90;;;;;;5030900;28;36820;-77
2023/10/20 03:19:22;;;;;;;48.00;38.33;;;15.00;99.90;;;;;;5027933;28;37508;-77
2023/10/20 03:21:49;;;;;;;48.55;39.78;;;15.10;99.90;;;;;;5033057;28;37367;-79
2023/10/20 03:24:15;;;;;;;48.35;39.65;;;15.00;99.90;;;;;;5031853;28;37880;-79
2023/10/20 03:26:42;;;;;;;46.10;38.28;;;15.10;99.90;;;;;;5031351;28;36825;-79
2023/10/20 03:29:09;;;;;;;46.28;38.65;;;15.10;99.90;;;;;;5047319;28;37705;-77
2023/10/20 03:31:35;;;;;;;46.40;36.92;;;15.10;99.90;;;;;;5033328;28;39723;-78
2023/10/20 03:34:01;;;;;;;45.72;37.20;;;15.00;99.90;;;;;;5030011;28;36862;-78
2023/10/20 03:36:27;;;;;;;45.13;38.40;;;15.00;99.90;;;;;;5047451;28;36681;-79
2023/10/20 03:38:53;;;;;;;56.13;41.38;;;15.00;99.90;;;;;;5033393;28;38760;-78
2023/10/20 03:41:22;;;;;;;55.47;41.22;;;15.00;99.90;;;;;;5047749;28;36913;-79
2023/10/20 03:43:50;;;;;;;44.03;37.65;;;15.00;99.90;;;;;;5029502;28;38440;-79
2023/10/20 03:46:18;;;;;;;52.30;41.05;;;15.00;99.90;;;;;;5030347;28;37284;-79
2023/10/20 03:48:45;;;;;;;46.80;38.53;;;15.00;99.90;;;;;;5029975;28;38957;-79
2023/10/20 03:51:12;;;;;;;43.65;37.22;;;15.00;99.90;;;;;;5026661;28;37228;-80
2023/10/20 03:53:52;;;;;;;50.50;40.35;;;15.00;99.90;;;;;;5031303;28;38308;-80
2023/10/20 03:56:23;;;;;;;46.53;40.70;;;15.00;99.90;;;;;;5021725;28;36727;-79
2023/10/20 03:58:49;;;;;;;48.90;39.22;;;15.00;99.90;;;;;;5030528;28;39644;-81
2023/10/20 04:01:15;;;;;;;50.65;41.50;;;15.00;99.90;;;;;;5023587;28;37467;-80
2023/10/20 04:03:44;;;;;;;53.95;42.70;;;15.00;99.90;;;;;;5027523;28;36996;-82
2023/10/20 04:06:11;;;;;;;53.00;40.90;;;15.00;99.90;;;;;;5039600;28;36645;-81
2023/10/20 04:08:37;;;;;;;53.53;43.20;;;15.00;99.90;;;;;;5032315;28;37787;-80
2023/10/20 04:11:03;;;;;;;56.33;42.63;;;15.00;99.90;;;;;;5044400;28;38021;-79
2023/10/20 04:13:31;;;;;;;53.10;41.67;;;15.00;99.90;;;;;;5033455;28;38325;-79
2023/10/20 04:15:58;;;;;;;50.85;39.35;;;15.00;99.90;;;;;;5031612;28;37494;-82
2023/10/20 04:18:24;;;;;;;51.85;40.00;;;15.00;99.90;;;;;;5046120;28;37432;-80
2023/10/20 04:20:55;;;;;;;49.40;41.83;;;14.90;99.90;;;;;;5026432;28;37211;-81
2023/10/20 04:23:22;;;;;;;52.33;40.78;;;14.90;99.90;;;;;;5038343;28;37355;-81
2023/10/20 04:25:55;;;;;;;53.50;42.90;;;15.00;99.90;;;;;;5029758;28;38468;-78
2023/10/20 04:28:33;;;;;;;51.03;40.50;;;15.00;99.90;;;;;;5035750;28;38923;-79
2023/10/20 04:54:44;;;;;;;58.70;45.25;;;14.90;99.90;;;;;;5032279;28;39152;-77
2023/10/20 04:57:40;;;;;;;61.38;47.78;;;14.80;99.90;;;;;;5023141;28;37219;-78
2023/10/20 05:02:43;;;;;;;62.35;47.10;;;14.80;99.90;;;;;;5026308;28;39088;-77
2023/10/20 05:07:57;;;;;;;60.17;46.30;;;14.80;99.90;;;;;;5031594;28;38086;-77
2023/10/20 05:10:24;;;;;;;;;;;14.80;99.90;;;;;;5028791;28;37992;-79
2023/10/20 05:12:50;;;;;;;55.10;45.55;;;14.80;99.90;;;;;;5029161;28;39602;-75
2023/10/20 05:15:17;;;;;;;64.60;45.78;;;14.70;99.90;;;;;;5030850;28;38732;-77
2023/10/20 05:17:46;;;;;;;61.03;46.20;;;14.70;99.90;;;;;;5032599;28;39051;-79
2023/10/20 05:20:19;;;;;;;62.30;47.17;;;14.70;99.90;;;;;;5030467;28;37640;-79
2023/10/20 05:22:47;;;;;;;60.95;48.58;;;14.70;99.90;;;;;;5027525;28;37522;-75
2023/10/20 05:25:14;;;;;;;58.08;45.63;;;14.70;99.90;;;;;;5023235;28;37917;-77
2023/10/20 05:27:41;;;;;;;67.00;46.63;;;14.60;99.90;;;;;;5024416;28;37579;-79
2023/10/20 05:30:08;;;;;;;65.57;46.08;;;14.60;99.90;;;;;;5026439;28;39615;-78
2023/10/20 05:32:37;;;;;;;65.18;47.30;;;14.60;99.90;;;;;;5036266;28;37637;-78
2023/10/20 05:35:07;;;;;;;68.45;46.28;;;14.60;99.90;;;;;;5031661;28;38034;-75
2023/10/20 05:37:33;;;;;;;65.93;46.40;;;14.60;99.90;;;;;;5011389;28;48745;-77
2023/10/20 05:39:59;;;;;;;65.97;45.58;;;14.60;99.90;;;;;;5032081;28;38144;-77
2023/10/20 05:42:25;;;;;;;67.90;45.88;;;14.60;99.90;;;;;;5014706;28;40452;-76
2023/10/20 05:45:09;;;;;;;63.90;43.55;;;14.60;99.90;;;;;;5016131;28;39079;-78
2023/10/20 05:47:37;;;;;;;62.00;45.05;;;14.50;99.90;;;;;;5026863;28;47307;-75
2023/10/20 05:50:03;;;;;;;69.13;46.22;;;14.50;99.90;;;;;;5012367;28;37977;-76
2023/10/20 05:52:29;;;;;;;66.28;45.15;;;14.50;99.90;;;;;;5013831;28;48233;-76
2023/10/20 05:54:57;;;;;;;67.10;43.45;;;14.50;99.90;;;;;;5027764;28;38668;-78
2023/10/20 05:57:23;;;;;;;69.13;43.55;;;14.40;99.90;;;;;;5016180;28;38741;-76
2023/10/20 05:59:50;;;;;;;68.93;42.80;;;14.40;99.90;;;;;;5015422;28;37746;-78
2023/10/20 06:02:16;;;;;;;63.75;41.45;;;14.20;99.90;;;;;;5013968;28;37512;-74
2023/10/20 06:04:43;;;;;;;61.08;41.85;;;14.20;99.90;;;;;;5015701;28;37866;-76
2023/10/20 06:07:09;;;;;;;67.75;41.15;;;14.10;99.90;;;;;;5014184;28;37059;-76
2023/10/20 06:09:35;;;;;;;67.75;40.65;;;14.10;99.90;;;;;;5031426;28;36790;-78
2023/10/20 06:12:03;;;;;;;73.45;45.85;;;14.10;99.90;;;;;;5016375;28;38374;-77
2023/10/20 06:14:30;;;;;;;67.03;40.70;;;14.00;99.90;;;;;;5014018;28;47348;-75
2023/10/20 06:16:56;;;;;;;55.60;37.42;;;13.90;99.90;;;;;;5012257;28;38452;-76
2023/10/20 06:19:23;;;;;;;68.70;39.65;;;13.90;99.90;;;;;;5008297;28;38942;-78
2023/10/20 06:21:50;;;;;;;64.50;39.72;;;13.90;99.90;;;;;;5012640;28;37420;-77
2023/10/20 06:24:16;;;;;;;59.60;37.47;;;13.80;99.90;;;;;;5014414;28;38749;-77
2023/10/20 06:26:42;;;;;;;65.75;39.60;;;13.80;99.90;;;;;;5017705;28;37781;-77
2023/10/20 06:32:10;;;;;;;60.70;38.08;;;13.70;99.90;;;;;;5011799;28;39116;-75
2023/10/20 06:34:40;;;;;;;64.88;37.20;;;13.70;99.90;;;;;;5013883;28;47451;-76
2023/10/20 06:37:08;;;;;;;63.75;38.28;;;13.70;99.90;;;;;;5013375;28;37818;-76
2023/10/20 06:39:38;;;;;;;53.90;34.95;;;13.70;99.90;;;;;;5015456;28;39214;-74
2023/10/20 06:42:05;;;;;;;61.47;36.67;;;13.60;99.90;;;;;;5017227;28;37775;-73
2023/10/20 06:44:31;;;;;;;59.10;35.53;;;13.50;99.90;;;;;;5014400;28;36902;-74
2023/10/20 06:46:59;;;;;;;56.05;34.75;;;13.50;99.90;;;;;;5015060;28;38044;-75
2023/10/20 06:49:26;;;;;;;49.83;32.03;;;13.50;99.90;;;;;;5027357;28;37897;-74
2023/10/20 06:51:52;;;;;;;58.83;33.30;;;13.50;99.90;;;;;;5016850;28;38322;-74
2023/10/20 06:54:18;;;;;;;52.38;32.30;;;13.50;99.90;;;;;;5017539;28;39006;-74
2023/10/20 06:56:45;;;;;;;43.35;27.98;;;13.40;99.90;;;;;;5018268;28;37249;-75
2023/10/20 06:59:13;;;;;;;48.05;28.80;;;13.40;99.90;;;;;;5012844;28;37437;-76
2023/10/20 07:01:43;;;;;;;39.58;26.25;;;13.40;99.90;;;;;;5017887;28;39183;-75
2023/10/20 07:04:10;;;;;;;46.95;28.63;;;13.30;99.90;;;;;;5014487;28;38608;-75
2023/10/20 07:06:36;;;;;;;33.35;23.25;;;13.30;99.90;;;;;;5016793;28;36859;-75
2023/10/20 07:09:11;;;;;;;41.10;25.17;;;13.30;99.90;;;;;;5029104;28;37835;-77
2023/10/20 07:11:38;;;;;;;35.60;23.50;;;13.30;99.90;;;;;;5013719;28;39646;-76
2023/10/20 07:14:05;;;;;;;37.72;23.83;;;13.20;99.90;;;;;;5027427;28;36767;-76
2023/10/20 07:16:32;;;;;;;36.45;23.65;;;13.20;99.90;;;;;;5016955;28;36793;-76
2023/10/20 07:18:58;;;;;;;36.05;22.75;;;13.20;99.90;;;;;;5012277;28;37623;-77
2023/10/20 07:21:24;;;;;;;39.35;24.13;;;13.20;99.90;;;;;;5014931;28;38401;-76
2023/10/20 07:23:51;;;;;;;28.77;20.83;;;13.20;99.90;;;;;;5028656;28;37620;-75
2023/10/20 07:26:17;;;;;;;35.17;22.27;;;13.10;99.90;;;;;;5014835;28;36557;-75
2023/10/20 07:28:44;;;;;;;36.38;23.05;;;13.10;99.90;;;;;;5015845;28;38495;-75
2023/10/20 07:31:15;;;;;;;35.00;22.75;;;13.10;99.90;;;;;;5015107;28;37857;-76
2023/10/20 07:33:41;;;;;;;26.70;18.90;;;13.20;99.90;;;;;;5010415;28;38235;-76
2023/10/20 07:36:08;;;;;;;34.58;21.92;;;13.10;99.90;;;;;;5027808;28;36293;-76
2023/10/20 07:38:35;;;;;;;27.88;19.67;;;13.10;99.90;;;;;;5000108;28;37621;-76
2023/10/20 07:41:06;;;;;;;30.25;21.02;;;13.10;99.90;;;;;;5010230;28;38210;-77
2023/10/20 07:43:35;;;;;;;26.55;18.23;;;13.00;99.90;;;;;;5009765;28;47135;-75
2023/10/20 07:46:02;;;;;;;26.10;17.67;;;13.00;99.90;;;;;;5010097;28;38234;-76
2023/10/20 07:48:31;;;;;;;26.13;18.67;;;12.90;99.90;;;;;;5013362;28;37573;-77
2023/10/20 07:51:01;;;;;;;29.25;18.02;;;12.90;99.90;;;;;;5014983;28;37128;-76
2023/10/20 07:53:29;;;;;;;22.17;15.35;;;12.90;99.90;;;;;;5009027;28;37368;-75
2023/10/20 07:55:55;;;;;;;21.70;16.38;;;12.90;99.90;;;;;;5007938;28;36301;-76
2023/10/20 07:58:22;;;;;;;25.50;16.30;;;12.90;99.90;;;;;;5012279;28;38687;-77
2023/10/20 08:00:48;;;;;;;18.58;14.05;;;12.90;99.90;;;;;;5013839;28;38779;-75
2023/10/20 08:03:15;;;;;;;20.25;13.93;;;12.90;99.90;;;;;;5015939;28;38828;-77
2023/10/20 08:05:41;;;;;;;19.90;13.65;;;12.80;99.90;;;;;;5014691;28;36226;-80
2023/10/20 08:08:07;;;;;;;19.15;13.32;;;12.80;99.90;;;;;;5013662;28;38034;-77
2023/10/20 08:10:33;;;;;;;22.88;13.43;;;12.70;99.90;;;;;;5014564;28;38682;-77
2023/10/20 08:12:59;;;;;;;17.10;13.82;;;12.70;99.90;;;;;;5015114;28;38725;-77
2023/10/20 08:15:27;;;;;;;17.25;12.93;;;12.70;99.90;;;;;;5029652;28;37976;-76
2023/10/20 08:17:55;;;;;;;18.45;13.40;;;12.70;99.90;;;;;;5016851;28;38542;-77
2023/10/20 08:20:22;;;;;;;20.73;13.18;;;12.70;99.90;;;;;;5030720;28;38977;-77
2023/10/20 08:22:48;;;;;;;19.80;12.93;;;12.70;99.90;;;;;;5008955;28;37523;-74
2023/10/20 08:25:15;;;;;;;14.07;10.77;;;12.70;99.90;;;;;;5013746;28;37329;-75
2023/10/20 08:27:41;;;;;;;16.58;11.60;;;12.70;99.90;;;;;;5012687;28;39129;-75
2023/10/20 08:30:08;;;;;;;15.90;11.45;;;12.60;99.90;;;;;;5013184;28;37418;-74
2023/10/20 08:32:34;;;;;;;14.50;10.38;;;12.60;99.90;;;;;;5013710;28;37359;-76
2023/10/20 08:35:00;;;;;;;16.63;11.65;;;12.60;99.90;;;;;;5012046;28;36463;-77
2023/10/20 08:37:28;;;;;;;14.52;10.95;;;12.60;99.90;;;;;;5028445;28;37831;-77
2023/10/20 08:39:54;;;;;;;14.95;10.18;;;12.60;99.90;;;;;;5011371;28;37263;-76
2023/10/20 08:42:21;;;;;;;15.60;10.93;;;12.60;99.90;;;;;;5027946;28;37831;-75
2023/10/20 08:44:49;;;;;;;13.90;9.27;;;12.50;99.90;;;;;;5011512;28;37267;-77
2023/10/20 08:47:17;;;;;;;13.95;9.73;;;12.50;99.90;;;;;;5013478;28;38046;-78
2023/10/20 08:49:44;;;;;;;15.65;10.32;;;12.50;99.90;;;;;;5015694;28;38204;-77
2023/10/20 08:52:12;;;;;;;14.82;9.55;;;12.50;99.90;;;;;;5028428;28;36904;-77
2023/10/20 08:54:38;;;;;;;13.15;8.85;;;12.40;99.90;;;;;;5015982;28;36643;-77
2023/10/20 08:57:05;;;;;;;12.52;8.65;;;12.40;99.90;;;;;;5009783;28;37602;-78
2023/10/20 08:59:32;;;;;;;12.85;8.57;;;12.40;99.90;;;;;;5033529;28;38206;-77
2023/10/20 09:01:59;;;;;;;12.73;9.23;;;12.30;99.90;;;;;;5011708;28;37297;-78
2023/10/20 09:04:26;;;;;;;9.50;7.55;;;12.30;99.90;;;;;;5008837;28;38113;-78
2023/10/20 09:06:53;;;;;;;12.70;8.27;;;12.30;99.90;;;;;;5015538;28;38048;-77
2023/10/20 09:09:20;;;;;;;10.02;7.75;;;12.30;99.90;;;;;;5014085;28;38294;-79
2023/10/20 09:11:47;;;;;;;9.43;7.45;;;12.30;99.90;;;;;;5010422;28;38398;-77
2023/10/20 09:14:14;;;;;;;9.60;7.13;;;12.20;99.90;;;;;;5017928;28;37546;-76
2023/10/20 09:16:45;;;;;;;10.23;6.80;;;12.20;99.90;;;;;;5003738;28;39104;-77
2023/10/20 09:19:12;;;;;;;11.15;7.47;;;12.10;99.90;;;;;;5003605;28;38783;-77
2023/10/20 09:21:44;;;;;;;9.35;6.75;;;12.10;99.90;;;;;;5014559;28;37496;-77
2023/10/20 09:24:11;;;;;;;9.75;7.03;;;12.10;99.90;;;;;;5011520;28;36395;-78
2023/10/20 09:26:39;;;;;;;11.40;7.80;;;12.10;99.90;;;;;;5009611;28;37143;-75
2023/10/20 09:29:06;;;;;;;10.68;6.88;;;12.10;99.90;;;;;;5009200;28;37301;-75
2023/10/20 09:31:34;;;;;;;13.07;7.40;;;12.10;99.90;;;;;;5011094;28;37667;-75
2023/10/20 09:34:00;;;;;;;9.85;6.90;;;12.10;99.90;;;;;;5007700;28;36217;-75
2023/10/20 09:36:32;;;;;;;7.03;5.70;;;12.10;99.90;;;;;;5010248;28;37330;-76
2023/10/20 09:39:00;;;;;;;11.07;5.38;;;12.00;99.90;;;;;;5011131;28;38390;-77
2023/10/20 09:41:28;;;;;;;10.50;6.10;;;12.00;99.90;;;;;;5008657;28;36670;-77
2023/10/20 09:44:06;;;;;;;10.38;6.15;;;12.00;99.90;;;;;;5006848;28;35450;-79
2023/10/20 09:46:41;;;;;;;10.13;6.25;;;12.00;99.90;;;;;;4995001;28;47706;-77
2023/10/20 09:49:28;;;;;;;9.70;7.07;;;12.00;99.90;;;;;;5004812;28;38263;-78
2023/10/20 09:51:56;;;;;;;8.98;5.78;;;12.00;99.90;;;;;;5015129;28;37051;-77
2023/10/20 09:54:30;;;;;;;7.05;5.20;;;11.90;99.90;;;;;;5012213;28;36563;-77
2023/10/20 09:56:57;;;;;;;7.80;5.30;;;11.90;99.90;;;;;;5023605;28;34706;-78
2023/10/20 09:59:25;;;;;;;6.38;4.78;;;11.80;99.90;;;;;;5014412;28;37875;-78
2023/10/20 10:01:57;;;;;;;6.93;4.75;;;11.80;99.90;;;;;;5014545;28;37645;-77
2023/10/20 10:04:37;;;;;;;7.68;4.68;;;11.80;99.90;;;;;;5005190;28;37433;-78
2023/10/20 10:07:04;;;;;;;6.68;4.93;;;11.80;99.90;;;;;;5011622;28;39157;-77
2023/10/20 10:09:40;;;;;;;7.32;4.10;;;11.80;99.90;;;;;;5011878;28;38467;-77
2023/10/20 10:12:20;;;;;;;6.47;4.75;;;11.70;99.90;;;;;;5011649;28;37945;-78
2023/10/20 10:15:07;;;;;;;5.00;3.95;;;11.70;99.90;;;;;;5010316;28;36956;-80
2023/10/20 10:17:47;;;;;;;4.32;3.47;;;11.70;99.90;;;;;;5012033;28;47237;-77
2023/10/20 10:20:24;;;;;;;4.95;3.72;;;11.70;99.90;;;;;;5006395;28;40121;-77
2023/10/20 10:23:01;;;;;;;3.83;3.00;;;11.70;99.90;;;;;;5021576;28;36658;-76
2023/10/20 10:25:39;;;;;;;4.40;3.33;;;11.60;99.90;;;;;;5009490;28;47441;-77
2023/10/20 10:28:18;;;;;;;4.25;3.05;;;11.60;99.90;;;;;;5003463;28;37341;-79
2023/10/20 10:30:50;;;;;;;4.10;3.25;;;11.70;99.90;;;;;;5010244;28;38505;-79
2023/10/20 10:33:23;;;;;;;3.37;3.07;;;11.70;99.90;;;;;;4999100;28;37586;-79
2023/10/20 10:36:01;;;;;;;4.57;3.10;;;11.70;99.90;;;;;;5003179;28;36888;-76
2023/10/20 10:38:29;;;;;;;3.13;2.67;;;11.60;99.90;;;;;;5018226;28;48302;-79
2023/10/20 10:40:55;;;;;;;4.25;2.50;;;11.60;99.90;;;;;;5012642;28;36322;-80
2023/10/20 10:43:22;;;;;;;3.23;2.43;;;11.70;99.90;;;;;;5029482;28;36824;-81
2023/10/20 10:45:54;;;;;;;4.68;2.50;;;11.70;99.90;;;;;;4996730;28;36901;-78
2023/10/20 10:48:27;;;;;;;3.42;2.53;;;11.70;99.90;;;;;;5007622;28;37654;-77
2023/10/20 10:50:53;;;;;;;3.37;3.07;;;11.70;99.90;;;;;;5020039;28;37503;-80
2023/10/20 10:53:19;;;;;;;3.93;3.50;;;11.70;99.90;;;;;;5007290;28;36847;-79
2023/10/20 10:55:46;;;;;;;2.60;2.40;;;11.70;99.90;;;;;;5013293;28;38383;-77
2023/10/20 10:58:14;;;;;;;2.90;2.57;;;11.70;99.90;;;;;;5009380;28;38553;-78
2023/10/20 11:00:42;;;;;;;3.58;2.50;;;11.70;99.90;;;;;;5009604;28;38291;-80
2023/10/20 11:03:09;;;;;;;3.85;2.33;;;11.60;99.90;;;;;;5010258;28;37386;-79
2023/10/20 11:05:37;;;;;;;3.08;2.50;;;11.60;99.90;;;;;;5009589;28;37114;-78
2023/10/20 11:08:05;;;;;;;2.60;2.40;;;11.60;99.90;;;;;;5012660;28;39358;-75
2023/10/20 11:10:34;;;;;;;3.28;2.47;;;11.70;99.90;;;;;;5014521;28;37384;-79
2023/10/20 11:13:06;;;;;;;2.15;1.95;;;11.70;99.90;;;;;;5011760;28;38397;-80
2023/10/20 11:15:33;;;;;;;2.20;2.00;;;11.60;99.90;;;;;;5018303;28;47804;-80
2023/10/20 11:18:01;;;;;;;4.85;2.33;;;11.60;99.90;;;;;;5015271;28;38377;-78
2023/10/20 11:20:37;;;;;;;2.60;1.80;;;11.60;99.90;;;;;;5014216;28;48535;-79
2023/10/20 11:23:07;;;;;;;1.83;1.60;;;11.70;99.90;;;;;;5039917;28;38502;-78
2023/10/20 11:25:34;;;;;;;1.83;1.60;;;11.70;99.90;;;;;;5018197;28;36317;-77
2023/10/20 11:28:02;;;;;;;2.80;2.42;;;11.70;99.90;;;;;;5024945;28;39877;-79
2023/10/20 11:30:34;;;;;;;2.45;2.25;;;11.70;99.90;;;;;;5027723;28;49589;-76
2023/10/20 11:33:03;;;;;;;2.08;1.63;;;11.70;99.90;;;;;;5025395;28;37521;-78
2023/10/20 11:35:29;;;;;;;2.33;1.92;;;11.70;99.90;;;;;;5017227;28;49258;-77
2023/10/20 11:37:57;;;;;;;1.60;1.50;;;11.70;99.90;;;;;;5003672;28;37893;-76
2023/10/20 11:40:26;;;;;;;4.88;3.20;;;11.70;99.90;;;;;;5022596;28;37196;-75
2023/10/20 11:42:52;;;;;;;2.22;1.70;;;11.70;99.90;;;;;;5011414;28;37383;-75
2023/10/20 11:45:20;;;;;;;2.15;1.95;;;11.70;99.90;;;;;;5014112;28;38565;-75
2023/10/20 11:47:46;;;;;;;2.22;1.98;;;11.60;99.90;;;;;;5007942;28;37655;-79
2023/10/20 11:50:18;;;;;;;2.55;1.40;;;11.70;99.90;;;;;;5007378;28;37465;-78
2023/10/20 11:52:45;;;;;;;2.50;2.30;;;11.60;99.90;;;;;;5015653;28;37532;-78
2023/10/20 11:55:11;;;;;;;1.93;1.80;;;11.70;99.90;;;;;;5007965;28;36403;-80
2023/10/20 11:57:38;;;;;;;4.23;1.83;;;11.60;99.90;;;;;;5013484;28;39010;-78
2023/10/20 12:00:09;;;;;;;3.67;1.60;;;11.60;99.90;;;;;;5012276;28;39223;-78
2023/10/20 12:02:36;;;;;;;1.98;1.65;;;11.60;99.90;;;;;;5014124;28;37454;-78
2023/10/20 12:05:02;;;;;;;1.70;1.40;;;11.60;99.90;;;;;;5015828;28;36381;-78
2023/10/20 12:07:28;;;;;;;1.83;1.73;;;11.60;99.90;;;;;;5002675;28;37649;-78
2023/10/20 12:09:54;;;;;;;1.88;1.63;;;11.60;99.90;;;;;;5005405;28;37259;-76
2023/10/20 12:12:21;;;;;;;1.75;1.40;;;11.60;99.90;;;;;;5009298;28;37856;-77
2023/10/20 12:14:47;;;;;;;1.23;1.13;;;11.60;99.90;;;;;;5005388;28;34212;-77
2023/10/20 12:17:13;;;;;;;1.77;1.48;;;11.60;99.90;;;;;;5005635;28;40180;-77
2023/10/20 12:19:40;;;;;;;3.10;1.77;;;11.70;99.90;;;;;;5005263;28;37253;-77
2023/10/20 12:22:06;;;;;;;2.67;1.45;;;11.60;99.90;;;;;;5009845;28;38122;-78
2023/10/20 12:24:32;;;;;;;1.33;1.20;;;11.70;99.90;;;;;;5009293;28;37074;-79
2023/10/20 12:26:59;;;;;;;2.35;1.20;;;11.70;99.90;;;;;;5025033;28;39174;-79
2023/10/20 12:29:25;;;;;;;1.58;1.30;;;11.70;99.90;;;;;;5011744;28;37463;-79
2023/10/20 12:31:52;;;;;;;1.63;1.35;;;11.70;99.90;;;;;;5002325;28;37011;-78
2023/10/20 12:34:19;;;;;;;1.38;1.20;;;11.70;99.90;;;;;;5014662;28;37170;-80
2023/10/20 12:36:45;;;;;;;1.50;1.40;;;11.80;99.90;;;;;;5010094;28;38912;-77
2023/10/20 12:39:17;;;;;;;3.75;1.55;;;11.80;99.90;;;;;;5010479;28;38465;-80
2023/10/20 12:41:47;;;;;;;1.20;1.10;;;11.80;99.90;;;;;;5006556;28;37212;-76
2023/10/20 12:44:13;;;;;;;1.10;1.00;;;11.90;99.90;;;;;;5024219;28;36095;-77
2023/10/20 12:46:40;;;;;;;2.00;1.20;;;11.90;99.90;;;;;;5014031;28;37962;-77
2023/10/20 12:49:06;;;;;;;1.27;1.00;;;11.90;99.90;;;;;;5016031;28;40066;-76
2023/10/20 12:51:34;;;;;;;2.25;1.75;;;12.00;99.90;;;;;;5014129;28;38007;-76
2023/10/20 12:54:01;;;;;;;1.88;1.10;;;12.10;99.90;;;;;;5008606;28;36167;-74
2023/10/20 12:56:30;;;;;;;2.30;1.55;;;12.10;99.90;;;;;;5014131;28;37785;-74
2023/10/20 12:58:56;;;;;;;3.85;1.48;;;12.10;99.90;;;;;;5015828;28;39019;-74
2023/10/20 13:01:23;;;;;;;1.17;1.08;;;12.10;99.90;;;;;;5028933;28;36995;-75
2023/10/20 13:03:49;;;;;;;1.40;1.00;;;12.10;99.90;;;;;;5014289;28;37404;-75
2023/10/20 13:06:15;;;;;;;1.60;1.20;;;12.20;99.90;;;;;;5011972;28;39373;-75
2023/10/20 13:08:45;;;;;;;1.27;0.90;;;12.10;99.90;;;;;;5011781;28;39149;-75